Latest Coastal Weather Observations for Redcliffe

IDQ60701

Issued at 3:02 pm EST Friday 18 August 2017 (issued every 10 minutes, with the page automatically refreshed every 10 minutes)

About coastal observations | Map of coastal stations | Coastal observations for QLD | Marine services | Other Formats
Station Details ID: 040958 Name: REDCLIFFE Lat: -27.22 Lon: 153.09 Height: 12.6 m
Data from the previous 72 hours. | See also: Recent months at Redcliffe
Date/Time
EST
Temp
°C
Wind Pressure Rain since
9am
mm
Weather Cloud Vis
km
Sea
Height
m
Swell
Dir  Spd
kts
Gust
kts
hPa Trend Height
m
Period
s
Dir
18/03:00pm 25.7 WSW 12 20 1011.1 - 0.0 - - - - - - -
18/02:30pm 25.5 W 13 22 1011.4 - 0.0 - - - - - - -
18/02:00pm 25.8 WSW 13 19 1011.6 - 0.0 - - - - - - -
18/01:35pm 25.5 W 15 26 1011.7 - 0.0 - - - - - - -
18/01:30pm 25.4 W 14 20 1011.7 - 0.0 - - - - - - -
18/01:14pm 25.4 W 15 25 1011.9 - 0.0 - - - - - - -
18/01:00pm 25.2 W 15 22 1012.2 - 0.0 - - - - - - -
18/12:30pm 25.2 W 13 21 1012.6 - 0.0 - - - - - - -
18/12:00pm 24.0 W 15 21 1013.1 - 0.0 - - - - - - -
18/11:30am 23.9 WSW 12 18 1013.7 - 0.0 - - - - - - -
18/11:00am 23.2 WSW 15 22 1014.2 - 0.0 - - - - - - -
18/10:30am 22.8 WSW 18 28 1014.6 - 0.0 - - - - - - -
18/10:17am 23.1 WSW 15 25 1014.9 - 0.0 - - - - - - -
18/10:00am 22.7 W 15 22 1015.2 - 0.0 - - - - - - -
18/09:30am 22.6 WSW 15 26 1015.3 - 0.0 - - - - - - -
18/09:27am 22.6 W 15 26 1015.4 - 0.0 - - - - - - -
18/09:00am 22.0 WSW 14 20 1015.5 - 0.0 - - - - - - -
18/08:30am 21.0 W 12 18 1015.5 - 0.0 - - - - - - -
18/08:00am 19.8 WNW 8 10 1015.3 - 0.0 - - - - - - -
18/07:30am 18.5 WNW 9 12 1015.0 - 0.0 - - - - - - -
18/07:00am 17.3 WNW 9 13 1014.7 - 0.0 - - - - - - -
18/06:30am 16.5 WNW 10 13 1014.5 - 0.0 - - - - - - -
18/06:00am 17.0 WNW 9 12 1014.3 - 0.0 - - - - - - -
18/05:30am 17.1 WNW 9 11 1013.9 - 0.0 - - - - - - -
18/05:00am 17.9 WNW 8 10 1013.5 - 0.0 - - - - - - -
18/04:30am 18.1 WNW 8 11 1013.1 - 0.0 - - - - - - -
18/04:00am 18.8 W 8 10 1012.9 - 0.0 - - - - - - -
18/03:30am 19.2 W 8 10 1012.7 - 0.0 - - - - - - -
18/03:00am 19.5 W 7 9 1012.7 - 0.0 - - - - - - -
18/02:30am 20.0 WSW 7 10 1012.7 - 0.0 - - - - - - -
18/02:00am 20.3 WSW 7 9 1012.7 - 0.0 - - - - - - -
18/01:30am 20.8 W 7 8 1012.6 - 0.0 - - - - - - -
18/01:00am 20.0 W 7 10 1012.7 - 0.0 - - - - - - -
18/12:30am 21.5 W 8 11 1012.8 - 0.0 - - - - - - -
18/12:00am 20.9 WSW 9 13 1012.9 - 0.0 - - - - - - -
 
Date/Time
EST
Temp
°C
Wind Pressure Rain since
9am
mm
Weather Cloud Vis
km
Sea
Height
m
Swell
Dir  Spd
kts
Gust
kts
hPa Trend Height
m
Period
s
Dir
17/11:30pm 20.3 SW 8 11 1012.8 - 0.0 - - - - - - -
17/11:00pm 20.4 WSW 7 8 1012.4 - 0.0 - - - - - - -
17/10:30pm 21.2 W 5 6 1012.3 - 0.0 - - - - - - -
17/10:00pm 21.7 W 4 6 1012.1 - 0.0 - - - - - - -
17/09:30pm 21.6 WNW 4 6 1012.0 - 0.0 - - - - - - -
17/09:00pm 20.5 N 4 6 1011.7 - 0.0 - - - - - - -
17/08:30pm 20.5 CALM 0 4 1011.6 - 0.0 - - - - - - -
17/08:00pm 20.7 N 2 7 1011.3 - 0.0 - - - - - - -
17/07:30pm 20.9 N 4 5 1011.0 - 0.0 - - - - - - -
17/07:00pm 21.5 N 4 6 1010.5 - 0.0 - - - - - - -
17/06:30pm 22.2 N 6 7 1009.9 - 0.0 - - - - - - -
17/06:00pm 22.6 NNE 6 7 1009.3 - 0.0 - - - - - - -
17/05:30pm 23.4 NNE 8 9 1008.8 - 0.0 - - - - - - -
17/05:00pm 25.0 NNE 6 9 1008.4 - 0.0 - - - - - - -
17/04:30pm 25.4 NNE 10 13 1007.9 - 0.0 - - - - - - -
17/04:00pm 25.8 NNE 10 14 1007.9 - 0.0 - - - - - - -
17/03:30pm 26.5 NNE 15 17 1007.6 - 0.0 - - - - - - -
17/03:00pm 30.4 NNE 14 17 1007.5 - 0.0 - - - - - - -
17/02:30pm 29.6 NNE 13 17 1007.7 - 0.0 - - - - - - -
17/02:00pm 29.5 NNE 10 14 1008.0 - 0.0 - - - - - - -
17/01:30pm 30.0 NNE 14 15 1008.5 - 0.0 - - - - - - -
17/01:00pm 30.3 NNE 11 15 1008.8 - 0.0 - - - - - - -
17/12:30pm 30.0 WNW 10 14 1009.2 - 0.0 - - - - - - -
17/12:00pm 30.0 NNW 9 15 1009.7 - 0.0 - - - - - - -
17/11:30am 29.1 WNW 8 14 1010.5 - 0.0 - - - - - - -
17/11:00am 28.7 NNW 9 14 1011.1 - 0.0 - - - - - - -
17/10:30am 27.5 NNW 6 8 1011.7 - 0.0 - - - - - - -
17/10:00am 26.7 NNW 8 12 1012.2 - 0.0 - - - - - - -
17/09:30am 24.5 N 7 9 1012.3 - 0.0 - - - - - - -
17/09:00am 23.0 NNE 7 7 1012.6 - 0.0 - - - - - - -
17/08:30am 22.2 CALM 0 0 1012.6 - 0.0 - - - - - - -
17/08:00am 21.1 N 5 7 1012.4 - 0.0 - - - - - - -
17/07:30am 19.8 N 6 7 1012.2 - 0.0 - - - - - - -
17/07:00am 17.5 N 7 8 1012.1 - 0.0 - - - - - - -
17/06:30am 17.0 N 5 7 1012.0 - 0.0 - - - - - - -
17/06:00am 16.7 NNE 4 5 1011.8 - 0.0 - - - - - - -
17/05:30am 17.4 CALM 0 0 1011.2 - 0.0 - - - - - - -
17/05:00am 18.2 N 4 5 1010.9 - 0.0 - - - - - - -
17/04:30am 18.5 N 6 8 1010.7 - 0.0 - - - - - - -
17/04:00am 18.6 N 4 6 1010.5 - 0.0 - - - - - - -
17/03:30am 18.7 N 7 9 1010.4 - 0.0 - - - - - - -
17/03:00am 18.9 N 7 9 1010.4 - 0.0 - - - - - - -
17/02:30am 19.0 N 7 8 1010.6 - 0.0 - - - - - - -
17/02:00am 19.1 N 8 10 1011.0 - 0.0 - - - - - - -
17/01:30am 19.3 NNW 9 12 1011.0 - 0.0 - - - - - - -
17/01:00am 19.3 N 11 15 1011.3 - 0.0 - - - - - - -
17/12:30am 19.6 N 11 15 1011.5 - 0.0 - - - - - - -
17/12:00am 19.7 N 11 15 1011.6 - 0.0 - - - - - - -
 
Date/Time
EST
Temp
°C
Wind Pressure Rain since
9am
mm
Weather Cloud Vis
km
Sea
Height
m
Swell
Dir  Spd
kts
Gust
kts
hPa Trend Height
m
Period
s
Dir
16/11:30pm 19.9 N 11 15 1011.7 - 0.0 - - - - - - -
16/11:00pm 20.3 N 12 15 1011.7 - 0.0 - - - - - - -
16/10:30pm 20.6 N 12 16 1011.7 - 0.0 - - - - - - -
16/10:00pm 20.6 N 13 15 1011.7 - 0.0 - - - - - - -
16/09:30pm 20.8 N 13 16 1011.7 - 0.0 - - - - - - -
16/09:00pm 21.0 N 13 16 1011.5 - 0.0 - - - - - - -
16/08:30pm 21.1 N 13 16 1011.4 - 0.0 - - - - - - -
16/08:00pm 21.3 N 13 16 1011.2 - 0.0 - - - - - - -
16/07:30pm 21.6 N 13 16 1011.0 - 0.0 - - - - - - -
16/07:00pm 21.7 N 15 17 1010.5 - 0.0 - - - - - - -
16/06:30pm 21.8 N 17 20 1010.1 - 0.0 - - - - - - -
16/06:00pm 22.1 NNE 19 21 1009.7 - 0.0 - - - - - - -
16/05:30pm 22.6 N 19 21 1009.2 - 0.0 - - - - - - -
16/05:00pm 23.1 NNE 20 23 1009.0 - 0.0 - - - - - - -
16/04:30pm 23.5 NNE 20 23 1008.7 - 0.0 - - - - - - -
16/04:00pm 23.9 NNE 17 19 1008.7 - 0.0 - - - - - - -
16/03:30pm 24.4 NNE 21 24 1008.6 - 0.0 - - - - - - -
16/03:00pm 25.0 NNE 19 22 1008.8 - 0.0 - - - - - - -
16/02:30pm 26.1 NNE 21 23 1008.9 - 0.0 - - - - - - -
16/02:00pm 25.9 NNE 20 22 1009.3 - 0.0 - - - - - - -
16/01:30pm 26.5 NNE 14 19 1009.7 - 0.0 - - - - - - -
16/01:00pm 26.1 NNE 17 19 1010.5 - 0.0 - - - - - - -
16/12:30pm 26.5 N 15 18 1011.2 - 0.0 - - - - - - -
16/12:00pm 25.8 N 16 18 1011.7 - 0.0 - - - - - - -
16/11:30am 25.4 NNE 14 15 1012.4 - 0.0 - - - - - - -
16/11:00am 24.3 N 13 15 1013.3 - 0.0 - - - - - - -
16/10:30am 23.4 N 14 17 1013.8 - 0.0 - - - - - - -
16/10:00am 22.4 N 15 18 1014.4 - 0.0 - - - - - - -
16/09:30am 20.9 N 14 17 1014.8 - 0.0 - - - - - - -
16/09:00am 18.4 N 8 14 1014.9 - 0.2 - - - - - - -
16/08:30am 17.4 N 8 14 1015.0 - 0.2 - - - - - - -
16/08:00am 16.4 N 9 11 1015.0 - 0.2 - - - - - - -
16/07:30am 16.8 N 9 12 1014.8 - 0.2 - - - - - - -
16/07:00am 15.6 - - - 1014.5 - 0.2 - - - - - - -
16/06:30am 13.7 - - - 1014.5 - 0.2 - - - - - - -
16/06:00am 12.5 NW 5 6 1014.5 - 0.2 - - - - - - -
16/05:30am 11.9 WNW 5 5 1014.3 - 0.2 - - - - - - -
16/05:00am 12.2 WNW 3 4 1014.0 - 0.2 - - - - - - -
16/04:30am 12.4 W 4 5 1013.9 - 0.2 - - - - - - -
16/04:00am 12.5 W 4 5 1013.7 - 0.2 - - - - - - -
16/03:30am 12.6 WSW 4 5 1013.8 - 0.2 - - - - - - -
16/03:00am 12.9 W 4 5 1013.9 - 0.2 - - - - - - -
16/02:30am 14.5 NW 4 5 1014.0 - 0.2 - - - - - - -
16/02:00am 15.4 NNW 3 4 1014.2 - 0.2 - - - - - - -
16/01:30am 15.5 NW 5 6 1014.5 - 0.2 - - - - - - -
16/01:00am 15.7 NNW 3 4 1014.8 - 0.2 - - - - - - -
16/12:30am 15.4 NNW 4 5 1015.2 - 0.2 - - - - - - -
16/12:00am 16.0 NW 4 6 1015.5 - 0.2 - - - - - - -
 
Date/Time
EST
Temp
°C
Wind Pressure Rain since
9am
mm
Weather Cloud Vis
km
Sea
Height
m
Swell
Dir  Spd
kts
Gust
kts
hPa Trend Height
m
Period
s
Dir
15/11:30pm 16.8 NW 5 6 1015.4 - 0.2 - - - - - - -
15/11:00pm 17.9 N 8 10 1015.5 - 0.2 - - - - - - -
15/10:30pm 18.6 N 10 14 1015.4 - 0.2 - - - - - - -
15/10:00pm 18.1 N 8 13 1015.6 - 0.2 - - - - - - -
15/09:30pm 18.6 NNW 7 9 1015.6 - 0.2 - - - - - - -
15/09:00pm 18.7 N 7 10 1015.7 - 0.2 - - - - - - -
15/08:30pm 18.8 N 8 9 1015.5 - 0.2 - - - - - - -
15/08:00pm 19.0 N 7 9 1015.4 - 0.2 - - - - - - -
15/07:30pm 19.2 N 7 9 1015.5 - 0.2 - - - - - - -
15/07:00pm 19.4 N 7 9 1015.4 - 0.2 - - - - - - -
15/06:30pm 19.7 N 8 9 1015.2 - 0.2 - - - - - - -
15/06:00pm 20.0 N 10 10 1015.2 - 0.2 - - - - - - -
15/05:30pm 20.3 NNE 10 10 1015.1 - 0.2 - - - - - - -
15/05:00pm 20.9 NNE 10 12 1015.3 - 0.2 - - - - - - -
15/04:30pm 21.6 NNE 10 12 1015.1 - 0.2 - - - - - - -
15/04:00pm 22.1 NE 8 10 1014.8 - 0.2 - - - - - - -
15/03:30pm 23.0 NE 8 9 1014.8 - 0.2 - - - - - - -

Other Formats:

Comma delimited format used in spreadsheet applications
http://www.bom.gov.au/fwo/IDQ60701/IDQ60701.95591.axf

JavaScript Object Notation format (JSON) in row-major order
http://www.bom.gov.au/fwo/IDQ60701/IDQ60701.95591.json